Time;durP1;ratioP1;P1;durP2;ratioP2;P2;SDS_P1;SDS_P2;PMS_P1;PMS_P2;Temp;Humidity;BMP_temperature;BMP_pressure;BME280_temperature;BME280_humidity;BME280_pressure;Samples;Min_cycle;Max_cycle;Signal;HPM_P1;HPM_P2
2022/08/01 00:02:13;;;;;;;6.60;2.10;;;;;;;23.13;45.89;98852.56;25119;1316;3051096;-66
2022/08/01 00:04:43;;;;;;;18.30;2.80;;;;;;;23.12;45.56;98847.75;25048;1316;3026041;-64
2022/08/01 00:07:14;;;;;;;8.30;2.10;;;;;;;23.13;45.29;98845.81;25093;1318;3071192;-64
2022/08/01 00:09:44;;;;;;;8.00;2.10;;;;;;;23.13;45.57;98845.91;25080;1315;3028533;-63
2022/08/01 00:12:13;;;;;;;12.70;2.70;;;;;;;23.10;45.46;98845.04;25074;1315;3026376;-68
2022/08/01 00:14:43;;;;;;;9.50;2.60;;;;;;;23.06;45.70;98850.74;25033;1315;3070992;-67
2022/08/01 00:17:12;;;;;;;5.50;2.30;;;;;;;23.05;45.98;98846.17;25116;1316;3026537;-68
2022/08/01 00:19:42;;;;;;;10.60;2.70;;;;;;;23.01;46.23;98849.84;25053;1316;3053431;-67
2022/08/01 00:22:11;;;;;;;7.20;2.90;;;;;;;22.97;46.65;98851.50;25033;1315;3026121;-64
2022/08/01 00:24:41;;;;;;;7.80;2.70;;;;;;;22.92;47.25;98857.39;25042;1316;3054522;-63
2022/08/01 00:27:10;;;;;;;7.00;2.40;;;;;;;22.96;47.12;98848.73;25125;1313;3026783;-65
2022/08/01 00:29:38;;;;;;;7.80;2.70;;;;;;;22.93;47.50;98847.67;25158;1316;3051466;-65
2022/08/01 00:32:08;;;;;;;5.10;2.30;;;;;;;22.88;47.54;98846.67;25126;1315;3026716;-62
2022/08/01 00:34:37;;;;;;;10.70;2.40;;;;;;;22.87;47.77;98841.23;25081;1318;3058502;-64
2022/08/01 00:37:05;;;;;;;12.80;2.40;;;;;;;22.83;47.73;98842.08;25124;1317;3026529;-64
2022/08/01 00:39:35;;;;;;;10.30;2.40;;;;;;;22.85;47.47;98832.45;25061;1313;3054368;-62
2022/08/01 00:42:07;;;;;;;8.90;2.40;;;;;;;22.80;47.86;98829.30;25108;1316;3026549;-64
2022/08/01 00:44:36;;;;;;;10.90;2.30;;;;;;;22.75;48.16;98825.63;25079;1316;3052938;-69
2022/08/01 00:47:06;;;;;;;5.80;2.20;;;;;;;22.69;48.71;98820.38;25137;1316;3026543;-66
2022/08/01 00:49:35;;;;;;;7.80;2.40;;;;;;;22.67;49.12;98819.77;25084;1313;3048431;-62
2022/08/01 00:52:04;;;;;;;9.10;2.50;;;;;;;22.60;49.36;98815.43;25101;1316;3026412;-67
2022/08/01 00:56:54;;;;;;;9.80;2.30;;;;;;;22.53;49.61;98822.17;31715;1310;3026405;-66
2022/08/01 00:59:23;;;;;;;8.40;2.70;;;;;;;22.70;48.69;98823.83;25082;1312;3026739;-65
2022/08/01 01:01:52;;;;;;;8.90;2.50;;;;;;;22.82;48.86;98820.08;25164;1312;3026743;-64
2022/08/01 01:04:22;;;;;;;8.20;2.40;;;;;;;22.65;49.05;98825.10;25098;1312;3053505;-68
2022/08/01 01:07:07;;;;;;;8.30;2.60;;;;;;;22.54;49.21;98828.06;25062;1312;3026574;-66
2022/08/01 01:09:44;;;;;;;6.50;2.50;;;;;;;22.46;49.58;98828.76;24870;1312;3363833;-66
2022/08/01 01:12:22;;;;;;;10.90;2.70;;;;;;;22.39;49.29;98829.91;25166;1310;3058333;-64
2022/08/01 01:14:57;;;;;;;7.10;2.40;;;;;;;22.29;50.02;98828.55;25094;1312;3051508;-66
2022/08/01 01:17:33;;;;;;;9.20;2.50;;;;;;;22.24;49.94;98822.38;25167;1312;3056579;-64
2022/08/01 01:20:03;;;;;;;11.40;2.80;;;;;;;22.18;50.29;98824.49;25165;1310;3050128;-65
2022/08/01 01:22:58;;;;;;;7.60;2.60;;;;;;;22.15;50.22;98820.77;25195;1310;3026377;-64
2022/08/01 01:25:36;;;;;;;9.90;2.50;;;;;;;22.10;50.44;98823.13;25228;1310;3048746;-69
2022/08/01 01:28:14;;;;;;;7.90;2.00;;;;;;;22.11;50.14;98825.46;25185;1310;3055194;-65
2022/08/01 01:30:45;;;;;;;7.80;2.50;;;;;;;22.14;49.73;98827.09;25157;1309;3052721;-64
2022/08/01 01:33:14;;;;;;;10.60;2.30;;;;;;;22.14;49.79;98832.83;25190;1310;3026744;-63
2022/08/01 01:35:46;;;;;;;6.60;2.20;;;;;;;22.18;49.61;98840.44;25103;1310;3026614;-66
2022/08/01 01:38:18;;;;;;;11.00;2.40;;;;;;;22.19;49.48;98840.09;25138;1310;3051651;-66
2022/08/01 01:40:48;;;;;;;10.20;2.10;;;;;;;22.24;49.15;98840.17;25183;1312;3026636;-63
2022/08/01 01:43:17;;;;;;;4.90;1.90;;;;;;;22.25;49.00;98837.05;25194;1310;3027009;-64
2022/08/01 01:45:47;;;;;;;5.40;2.30;;;;;;;22.25;49.08;98837.02;25119;1312;3026167;-68
2022/08/01 01:48:17;;;;;;;7.10;2.10;;;;;;;22.26;49.22;98835.83;25127;1310;3026578;-67
2022/08/01 01:50:47;;;;;;;8.40;2.10;;;;;;;22.27;49.19;98838.60;25121;1310;3027653;-66
2022/08/01 01:53:17;;;;;;;6.60;2.10;;;;;;;22.26;49.07;98838.73;25157;1310;3027118;-64
2022/08/01 01:55:48;;;;;;;8.20;2.60;;;;;;;22.27;49.04;98845.60;25102;1312;3026627;-65
2022/08/01 01:58:18;;;;;;;15.70;3.00;;;;;;;22.27;48.94;98845.06;25149;1310;3027327;-66
2022/08/01 02:00:48;;;;;;;6.30;2.80;;;;;;;22.26;48.84;98845.83;25109;1312;3026575;-67
2022/08/01 02:03:17;;;;;;;10.50;2.60;;;;;;;22.28;48.43;98843.88;25088;1312;3027012;-63
2022/08/01 02:05:46;;;;;;;8.10;2.70;;;;;;;22.26;47.90;98844.20;25110;1311;3027227;-65
2022/08/01 02:08:17;;;;;;;8.50;2.80;;;;;;;22.26;48.03;98839.95;25137;1310;3028154;-64
2022/08/01 02:11:17;;;;;;;9.70;2.90;;;;;;;22.28;47.58;98836.35;25134;1312;3027321;-68
2022/08/01 02:13:36;;;;;;;6.40;3.20;;;;;;;22.29;47.65;98836.23;25162;1310;3052239;-65
2022/08/01 02:16:06;;;;;;;15.20;3.20;;;;;;;22.25;47.53;98837.61;25193;1312;3027882;-68
2022/08/01 02:18:35;;;;;;;8.80;3.50;;;;;;;22.25;47.65;98842.20;25167;1310;3026561;-66
2022/08/01 02:21:05;;;;;;;6.80;3.20;;;;;;;22.26;47.55;98847.11;25094;1312;3026492;-64
2022/08/01 02:23:36;;;;;;;10.00;3.30;;;;;;;22.27;47.19;98856.59;25124;1312;3053401;-66
2022/08/01 02:26:08;;;;;;;12.20;3.60;;;;;;;22.29;47.42;98865.47;25112;1312;3028237;-65
2022/08/01 02:29:00;;;;;;;9.60;3.50;;;;;;;22.35;47.14;98868.08;25164;1310;3028173;-66
2022/08/01 02:31:30;;;;;;;11.80;3.60;;;;;;;22.37;47.20;98865.36;25094;1312;3052868;-65
2022/08/01 02:34:02;;;;;;;11.60;4.00;;;;;;;22.40;47.30;98865.23;25129;1312;3026849;-63
2022/08/01 02:36:33;;;;;;;15.80;4.80;;;;;;;22.44;47.65;98864.10;25154;1309;3028837;-68
2022/08/01 02:39:06;;;;;;;9.90;4.10;;;;;;;22.44;47.90;98865.88;25125;1312;3027556;-65
2022/08/01 02:41:38;;;;;;;10.70;4.50;;;;;;;22.42;47.92;98862.65;25140;1312;3051364;-66
2022/08/01 02:44:08;;;;;;;11.10;4.50;;;;;;;22.45;48.05;98860.05;25113;1312;3026498;-64
2022/08/01 02:46:38;;;;;;;16.10;5.00;;;;;;;22.43;48.09;98860.06;25101;1312;3026789;-69
2022/08/01 02:49:09;;;;;;;16.50;4.90;;;;;;;22.41;48.25;98864.14;25144;1312;3028880;-67
2022/08/01 02:51:39;;;;;;;12.30;5.00;;;;;;;22.38;48.54;98866.91;25172;1310;3026522;-63
2022/08/01 02:54:08;;;;;;;14.40;4.80;;;;;;;22.39;48.30;98866.50;25172;1311;3026389;-63
2022/08/01 02:56:37;;;;;;;11.80;5.30;;;;;;;22.36;48.55;98864.22;25130;1312;3028495;-64
2022/08/01 02:59:11;;;;;;;15.10;4.90;;;;;;;22.41;48.19;98878.02;25099;1312;3028110;-64
2022/08/01 03:01:40;;;;;;;17.00;5.40;;;;;;;22.41;48.61;98877.25;25128;1311;3053446;-65
2022/08/01 03:04:09;;;;;;;10.40;5.10;;;;;;;22.40;49.10;98885.28;25119;1312;3026372;-64
2022/08/01 03:06:38;;;;;;;12.10;5.40;;;;;;;22.38;49.06;98879.50;25074;1311;3049883;-67
2022/08/01 03:09:07;;;;;;;11.60;5.70;;;;;;;22.34;49.52;98875.98;25220;1310;3026793;-65
2022/08/01 03:11:37;;;;;;;20.00;6.20;;;;;;;22.28;49.55;98873.61;25108;1312;3058316;-63
2022/08/01 03:14:07;;;;;;;14.40;4.60;;;;;;;22.22;49.78;98867.35;25116;1312;3027442;-66
2022/08/01 03:16:37;;;;;;;11.50;5.10;;;;;;;22.15;49.72;98861.20;25129;1312;3026396;-66
2022/08/01 03:19:08;;;;;;;14.10;4.60;;;;;;;22.10;49.92;98855.73;25117;1309;3027119;-67
2022/08/01 03:21:38;;;;;;;11.10;4.60;;;;;;;22.10;49.99;98852.56;25094;1310;3027316;-64
2022/08/01 03:24:07;;;;;;;16.20;5.40;;;;;;;22.10;50.28;98854.46;25089;1311;3026722;-65
2022/08/01 03:26:36;;;;;;;23.70;4.60;;;;;;;22.14;50.65;98852.41;25103;1311;3026855;-64
2022/08/01 03:29:06;;;;;;;12.30;5.30;;;;;;;22.12;51.19;98848.75;25096;1311;3026551;-66
2022/08/01 03:31:38;;;;;;;12.40;4.20;;;;;;;22.04;51.04;98843.96;25095;1312;3026670;-67
2022/08/01 03:34:07;;;;;;;15.40;4.40;;;;;;;21.99;51.66;98844.74;25066;1312;3027134;-67
2022/08/01 03:36:41;;;;;;;8.80;4.50;;;;;;;21.91;52.08;98845.73;25149;1312;3026734;-62
2022/08/01 03:39:10;;;;;;;15.30;4.50;;;;;;;21.96;51.85;98836.20;25092;1312;3056609;-62
2022/08/01 03:41:41;;;;;;;10.80;3.80;;;;;;;21.89;52.44;98830.06;25233;1311;3026423;-65
2022/08/01 03:44:14;;;;;;;10.10;3.90;;;;;;;21.85;53.13;98834.02;25101;1312;3055368;-65
2022/08/01 03:46:47;;;;;;;16.10;4.30;;;;;;;21.80;53.82;98843.83;25103;1312;3026821;-63
2022/08/01 03:49:31;;;;;;;17.60;4.60;;;;;;;21.81;53.96;98848.72;25115;1312;3048934;-70
2022/08/01 03:52:04;;;;;;;15.50;4.70;;;;;;;21.78;54.59;98856.58;25206;1309;3054437;-66
2022/08/01 03:54:35;;;;;;;8.60;4.30;;;;;;;21.68;55.03;98865.34;25133;1309;3052888;-67
2022/08/01 03:57:05;;;;;;;13.10;5.00;;;;;;;21.66;55.16;98873.38;25205;1309;3026113;-68
2022/08/01 03:59:35;;;;;;;11.40;4.10;;;;;;;21.62;55.11;98876.70;25129;1312;3026424;-67
2022/08/01 04:02:04;;;;;;;10.50;4.30;;;;;;;21.60;54.39;98877.80;25194;1312;3052650;-66
2022/08/01 04:04:33;;;;;;;11.00;4.40;;;;;;;21.63;54.35;98882.35;25148;1309;3026933;-68
2022/08/01 04:07:06;;;;;;;9.30;4.50;;;;;;;21.64;54.04;98880.98;25127;1309;3026083;-69
2022/08/01 04:09:35;;;;;;;8.30;4.30;;;;;;;21.63;54.79;98885.86;25152;1309;3049461;-65
2022/08/01 04:12:05;;;;;;;11.00;4.00;;;;;;;21.63;54.33;98878.73;25073;1312;3028673;-66
2022/08/01 04:14:34;;;;;;;13.40;4.80;;;;;;;21.57;54.99;98879.45;25155;1309;3054600;-68
2022/08/01 04:17:03;;;;;;;11.40;4.60;;;;;;;21.54;54.89;98876.04;25115;1309;3029841;-67
2022/08/01 04:19:32;;;;;;;14.00;3.80;;;;;;;21.52;55.05;98891.89;25156;1309;3051089;-67
2022/08/01 04:22:02;;;;;;;14.60;4.20;;;;;;;21.54;55.07;98897.05;25147;1309;3026792;-63
2022/08/01 04:24:32;;;;;;;8.70;4.20;;;;;;;21.52;55.41;98901.21;25217;1309;3056788;-65
2022/08/01 04:27:01;;;;;;;9.90;4.30;;;;;;;21.56;55.46;98898.48;25119;1309;3027694;-63
2022/08/01 04:29:30;;;;;;;11.40;4.50;;;;;;;21.59;55.56;98900.34;25148;1309;3026632;-66
2022/08/01 04:32:00;;;;;;;12.90;4.10;;;;;;;21.53;56.15;98897.21;25076;1312;3058522;-67
2022/08/01 04:34:30;;;;;;;12.60;4.50;;;;;;;21.57;55.90;98892.31;25130;1309;3028957;-68
2022/08/01 04:37:00;;;;;;;11.00;4.10;;;;;;;21.54;56.45;98887.15;25118;1312;3026442;-68
2022/08/01 04:39:31;;;;;;;9.00;4.30;;;;;;;21.57;56.46;98881.39;25167;1309;3026624;-64
2022/08/01 04:42:02;;;;;;;9.00;4.60;;;;;;;21.61;56.84;98882.90;25143;1309;3028633;-69
2022/08/01 04:44:32;;;;;;;10.30;4.60;;;;;;;21.61;57.54;98885.27;25076;1312;3026404;-63
2022/08/01 04:47:03;;;;;;;12.10;4.70;;;;;;;21.60;57.98;98891.02;25197;1309;3026219;-66
2022/08/01 04:49:32;;;;;;;9.60;4.70;;;;;;;21.54;59.02;98885.45;25162;1309;3027454;-66
2022/08/01 04:52:01;;;;;;;12.20;4.70;;;;;;;21.50;60.25;98883.45;25159;1309;3026893;-62
2022/08/01 04:54:33;;;;;;;12.50;4.40;;;;;;;21.49;60.59;98879.69;25097;1309;3026295;-68
2022/08/01 04:57:06;;;;;;;12.80;4.40;;;;;;;21.42;60.79;98885.20;25122;1309;3026979;-67
2022/08/01 04:59:39;;;;;;;12.50;4.70;;;;;;;21.37;61.01;98889.95;25112;1309;3026447;-66
2022/08/01 05:02:09;;;;;;;13.10;4.50;;;;;;;21.31;61.50;98893.95;25187;1312;3070719;-63
2022/08/01 05:04:39;;;;;;;11.70;4.80;;;;;;;21.25;61.79;98900.27;25098;1312;3026950;-66
2022/08/01 05:07:09;;;;;;;9.60;4.70;;;;;;;21.25;61.62;98904.11;25186;1309;3027557;-62
2022/08/01 05:09:41;;;;;;;13.50;4.50;;;;;;;21.21;61.97;98906.00;25195;1310;3026634;-63
2022/08/01 05:12:10;;;;;;;9.30;4.40;;;;;;;21.20;61.75;98898.94;25192;1309;3026280;-65
2022/08/01 05:14:40;;;;;;;15.80;4.60;;;;;;;21.22;61.30;98889.50;25133;1310;3026387;-65
2022/08/01 05:17:09;;;;;;;12.40;4.70;;;;;;;21.21;61.38;98894.27;25125;1309;3026418;-68
2022/08/01 05:19:39;;;;;;;12.60;5.00;;;;;;;21.16;61.61;98891.11;25167;1309;3026553;-67
2022/08/01 05:22:08;;;;;;;14.80;5.40;;;;;;;21.15;61.58;98892.55;25119;1310;3048956;-66
2022/08/01 05:24:38;;;;;;;11.40;5.30;;;;;;;21.13;61.73;98889.92;25151;1309;3026470;-65
2022/08/01 05:27:08;;;;;;;11.70;4.70;;;;;;;21.07;61.98;98890.30;25161;1309;3027234;-67
2022/08/01 05:29:37;;;;;;;11.00;5.70;;;;;;;21.07;61.72;98894.72;25116;1309;3026094;-63
2022/08/01 05:32:06;;;;;;;14.50;5.20;;;;;;;21.02;62.00;98902.12;25146;1309;3054791;-66
2022/08/01 05:34:35;;;;;;;15.00;5.90;;;;;;;20.90;62.54;98917.71;25122;1309;3026816;-66
2022/08/01 05:37:04;;;;;;;13.00;5.60;;;;;;;20.85;63.13;98916.98;25150;1309;3026275;-67
2022/08/01 05:39:33;;;;;;;16.80;5.80;;;;;;;20.76;63.58;98912.24;25178;1309;3051991;-65
2022/08/01 05:42:02;;;;;;;14.90;6.00;;;;;;;20.68;64.27;98908.49;25149;1309;3026316;-67
2022/08/01 05:44:31;;;;;;;11.80;6.10;;;;;;;20.62;64.74;98906.09;25199;1309;3051079;-63
2022/08/01 05:47:02;;;;;;;14.40;5.70;;;;;;;20.60;65.19;98915.80;25160;1309;3026895;-61
2022/08/01 05:49:31;;;;;;;17.00;7.00;;;;;;;21.12;64.42;98922.66;25165;1309;3058820;-67
2022/08/01 05:52:01;;;;;;;21.80;7.40;;;;;;;21.58;63.07;98921.69;25144;1309;3026637;-66
2022/08/01 05:54:31;;;;;;;16.70;7.50;;;;;;;21.73;62.09;98935.38;25115;1309;3054028;-65
2022/08/01 05:57:01;;;;;;;14.20;8.00;;;;;;;21.70;62.25;98945.19;25166;1310;3026780;-65
2022/08/01 05:59:30;;;;;;;21.70;9.50;;;;;;;21.67;61.98;98941.59;25178;1309;3027512;-66
2022/08/01 06:01:59;;;;;;;27.80;10.30;;;;;;;21.50;62.36;98942.22;25150;1309;3026685;-64
2022/08/01 06:04:28;;;;;;;24.70;9.60;;;;;;;21.37;62.86;98938.84;25140;1309;3058927;-68
2022/08/01 06:06:57;;;;;;;25.20;8.90;;;;;;;21.29;63.04;98931.20;25164;1312;3026459;-66
2022/08/01 06:09:26;;;;;;;22.70;10.20;;;;;;;21.24;63.17;98928.67;25152;1309;3026407;-64
2022/08/01 06:11:55;;;;;;;31.80;10.60;;;;;;;21.25;63.48;98925.95;25160;1309;3056924;-64
2022/08/01 06:14:24;;;;;;;21.20;10.50;;;;;;;21.27;63.55;98929.84;25123;1309;3026854;-69
2022/08/01 06:16:53;;;;;;;26.20;10.50;;;;;;;21.29;64.28;98931.27;25160;1309;3054106;-67
2022/08/01 06:19:22;;;;;;;24.60;9.90;;;;;;;21.29;63.80;98926.39;25116;1309;3026909;-67
2022/08/01 06:21:51;;;;;;;25.30;10.60;;;;;;;21.33;64.24;98927.08;25176;1309;3053986;-65
2022/08/01 06:24:22;;;;;;;19.60;7.80;;;;;;;21.39;64.18;98939.52;25128;1309;3029427;-63
2022/08/01 06:26:51;;;;;;;24.40;9.50;;;;;;;22.02;63.13;98946.03;25161;1309;3048281;-68
2022/08/01 06:29:20;;;;;;;17.60;9.50;;;;;;;22.61;61.55;98938.91;25174;1310;3030220;-65
2022/08/01 06:31:49;;;;;;;19.60;8.90;;;;;;;22.77;60.44;98935.46;25159;1309;3068385;-65
2022/08/01 06:34:19;;;;;;;18.80;8.80;;;;;;;22.74;59.79;98933.30;25118;1309;3026534;-66
2022/08/01 06:36:47;;;;;;;15.80;8.50;;;;;;;22.65;59.89;98932.02;25181;1309;3053147;-70
2022/08/01 06:39:16;;;;;;;18.50;8.80;;;;;;;22.58;59.76;98939.34;25134;1309;3026401;-72
2022/08/01 06:41:48;;;;;;;23.30;8.40;;;;;;;22.46;60.15;98946.23;25182;1309;3054975;-67
2022/08/01 06:44:17;;;;;;;18.20;8.40;;;;;;;22.27;60.72;98941.84;25199;1310;3028174;-69
2022/08/01 06:46:46;;;;;;;21.60;8.40;;;;;;;22.29;60.78;98931.65;25139;1309;3026884;-68
2022/08/01 06:49:15;;;;;;;24.60;9.40;;;;;;;22.31;60.63;98929.97;25136;1312;3052583;-71
2022/08/01 06:51:44;;;;;;;20.60;8.80;;;;;;;22.38;60.40;98924.53;25179;1309;3028767;-72
2022/08/01 06:54:14;;;;;;;17.30;8.30;;;;;;;22.50;60.22;98919.56;25147;1309;3026338;-66
2022/08/01 06:56:43;;;;;;;21.60;9.10;;;;;;;22.55;60.22;98913.83;25199;1309;3055071;-68
2022/08/01 06:59:12;;;;;;;19.70;8.10;;;;;;;22.51;60.71;98910.57;25179;1309;3026701;-69
2022/08/01 07:01:41;;;;;;;24.00;9.10;;;;;;;22.54;60.43;98900.90;25099;1309;3050576;-66
2022/08/01 07:04:10;;;;;;;18.20;9.20;;;;;;;22.56;60.78;98896.22;25186;1310;3027380;-69
2022/08/01 07:06:39;;;;;;;24.60;11.30;;;;;;;22.59;60.78;98889.42;25139;1309;3026631;-69
2022/08/01 07:09:09;;;;;;;21.00;10.80;;;;;;;22.62;60.76;98887.11;25104;1312;3051162;-72
2022/08/01 07:11:38;;;;;;;23.60;10.60;;;;;;;22.67;60.83;98881.50;25149;1310;3026630;-69
2022/08/01 07:14:07;;;;;;;20.70;10.70;;;;;;;22.75;60.21;98878.94;25145;1309;3057860;-68
2022/08/01 07:16:36;;;;;;;26.10;11.50;;;;;;;22.78;60.25;98882.14;25121;1309;3027282;-63
2022/08/01 07:19:05;;;;;;;22.90;10.40;;;;;;;22.78;60.32;98898.23;25117;1309;3052633;-62
2022/08/01 07:21:34;;;;;;;16.90;9.80;;;;;;;22.81;60.21;98903.52;25084;1309;3026850;-64
2022/08/01 07:24:04;;;;;;;22.60;11.30;;;;;;;22.83;60.25;98901.66;25136;1309;3026765;-65
2022/08/01 07:26:33;;;;;;;19.50;10.50;;;;;;;22.89;60.04;98902.78;25132;1309;3052862;-67
2022/08/01 07:29:02;;;;;;;17.20;10.30;;;;;;;22.91;60.01;98897.88;25175;1313;3027836;-64
2022/08/01 07:31:31;;;;;;;16.70;9.00;;;;;;;22.98;59.90;98898.29;25140;1313;3053991;-65
2022/08/01 07:34:00;;;;;;;21.30;9.10;;;;;;;22.98;59.90;98902.94;25169;1309;3026322;-66
2022/08/01 07:36:29;;;;;;;20.40;8.50;;;;;;;22.98;60.26;98901.14;25120;1310;3050976;-67
2022/08/01 07:38:58;;;;;;;22.80;8.90;;;;;;;23.05;59.92;98906.37;25117;1312;3026556;-64
2022/08/01 07:41:27;;;;;;;17.90;8.80;;;;;;;23.06;60.35;98894.69;25177;1309;3070219;-64
2022/08/01 07:43:57;;;;;;;16.00;8.20;;;;;;;23.13;60.68;98872.77;25103;1309;3026565;-66
2022/08/01 07:46:26;;;;;;;14.70;7.40;;;;;;;23.08;60.78;98862.56;25263;1309;3026329;-69
2022/08/01 07:48:54;;;;;;;18.10;7.40;;;;;;;23.10;60.73;98859.29;25191;1310;3068262;-66
2022/08/01 07:51:23;;;;;;;14.90;7.00;;;;;;;23.12;60.73;98858.07;25186;1309;3027212;-66
2022/08/01 07:53:52;;;;;;;15.00;6.80;;;;;;;23.23;60.54;98864.52;25185;1309;3053787;-66
2022/08/01 07:56:23;;;;;;;10.80;6.50;;;;;;;23.33;60.61;98871.02;25154;1312;3027640;-62
2022/08/01 07:58:52;;;;;;;10.80;6.20;;;;;;;23.37;60.65;98873.00;25107;1310;3053872;-68
2022/08/01 08:01:21;;;;;;;11.60;6.40;;;;;;;23.52;60.14;98872.23;25219;1309;3026795;-67
2022/08/01 08:03:50;;;;;;;17.30;7.10;;;;;;;23.70;59.60;98875.58;25069;1312;3051467;-65
2022/08/01 08:06:19;;;;;;;12.20;6.30;;;;;;;23.83;59.21;98872.84;25157;1310;3026516;-65
2022/08/01 08:08:48;;;;;;;15.00;6.70;;;;;;;23.89;59.54;98877.23;25103;1312;3058201;-65
2022/08/01 08:11:17;;;;;;;14.50;6.40;;;;;;;23.89;59.89;98866.64;25158;1310;3026843;-61
2022/08/01 08:13:47;;;;;;;12.90;7.00;;;;;;;23.81;60.25;98859.16;25111;1309;3054388;-63
2022/08/01 08:16:16;;;;;;;15.40;6.50;;;;;;;23.94;59.16;98847.58;25152;1309;3026545;-61
2022/08/01 08:18:45;;;;;;;12.10;6.90;;;;;;;24.05;58.54;98835.23;25085;1310;3054775;-63
2022/08/01 08:21:14;;;;;;;16.00;6.80;;;;;;;24.08;58.14;98829.08;25135;1309;3026612;-63
2022/08/01 08:26:31;;;;;;;14.60;7.20;;;;;;;24.01;58.39;98837.07;25079;1309;3055281;-63
2022/08/01 08:29:00;;;;;;;14.90;7.50;;;;;;;23.89;59.11;98835.02;25155;1309;3027111;-62
2022/08/01 08:31:29;;;;;;;14.10;7.10;;;;;;;23.84;59.48;98828.73;25084;1309;3050835;-63
2022/08/01 08:33:58;;;;;;;13.00;6.90;;;;;;;23.93;59.00;98815.54;25132;1310;3026390;-63
2022/08/01 08:36:27;;;;;;;14.10;6.80;;;;;;;24.15;58.80;98806.04;25071;1309;3070963;-62
2022/08/01 08:38:56;;;;;;;15.60;6.70;;;;;;;24.22;58.65;98800.38;25135;1312;3026933;-64
2022/08/01 08:41:25;;;;;;;14.70;6.40;;;;;;;24.37;57.95;98804.00;25145;1309;3052301;-63
2022/08/01 08:43:54;;;;;;;14.50;6.40;;;;;;;24.45;57.60;98816.86;25095;1311;3026365;-65
2022/08/01 08:46:23;;;;;;;15.70;6.40;;;;;;;24.45;57.97;98825.44;25117;1309;3054526;-63
2022/08/01 08:48:52;;;;;;;14.50;7.00;;;;;;;24.53;57.62;98817.02;25128;1312;3026493;-64
2022/08/01 08:51:21;;;;;;;15.60;6.70;;;;;;;24.57;57.47;98818.55;25071;1312;3051910;-61
2022/08/01 08:53:51;;;;;;;12.30;6.10;;;;;;;24.56;57.55;98818.92;25098;1309;3030038;-63
2022/08/01 08:56:20;;;;;;;9.60;5.90;;;;;;;24.77;57.38;98809.83;25137;1310;3058095;-63
2022/08/01 08:58:49;;;;;;;11.80;6.50;;;;;;;24.99;56.87;98808.45;25084;1312;3026866;-61
2022/08/01 09:01:17;;;;;;;12.20;6.70;;;;;;;25.02;56.91;98806.09;25112;1313;3052111;-64
2022/08/01 09:03:46;;;;;;;16.90;6.50;;;;;;;25.01;56.16;98792.86;25211;1309;3026701;-64
2022/08/01 09:06:15;;;;;;;16.70;6.70;;;;;;;24.90;56.15;98781.14;25104;1312;3054898;-62
2022/08/01 09:08:49;;;;;;;16.60;6.00;;;;;;;24.64;56.73;98770.64;25128;1309;3054947;-64
2022/08/01 09:11:18;;;;;;;14.80;6.70;;;;;;;24.54;56.68;98759.36;25160;1309;3030145;-64
2022/08/01 09:14:10;;;;;;;12.40;5.70;;;;;;;24.61;56.43;98759.34;25199;1310;3055155;-63
2022/08/01 09:16:44;;;;;;;14.10;5.90;;;;;;;24.47;56.67;98764.90;25115;1312;3052562;-63
2022/08/01 09:19:15;;;;;;;17.10;6.30;;;;;;;24.36;56.86;98777.91;25120;1309;3059331;-62
2022/08/01 09:22:01;;;;;;;13.90;5.80;;;;;;;24.35;57.20;98783.42;25105;1309;3026750;-61
2022/08/01 09:24:30;;;;;;;12.60;6.10;;;;;;;24.26;57.80;98770.48;25172;1309;3052927;-65
2022/08/01 09:26:59;;;;;;;9.20;6.20;;;;;;;24.14;58.98;98751.74;25181;1309;3026673;-65
2022/08/01 09:29:30;;;;;;;15.30;6.40;;;;;;;24.19;58.47;98738.97;25123;1309;3026446;-62
2022/08/01 09:31:59;;;;;;;17.20;6.60;;;;;;;24.26;58.15;98744.58;25128;1309;3052127;-64
2022/08/01 09:34:30;;;;;;;15.40;6.30;;;;;;;24.30;58.38;98743.15;25115;1309;3026949;-64
2022/08/01 09:37:00;;;;;;;10.50;6.60;;;;;;;24.26;58.70;98746.14;25140;1309;3049401;-63
2022/08/01 09:39:36;;;;;;;12.70;7.20;;;;;;;24.31;58.23;98739.68;25146;1309;3026536;-65
2022/08/01 09:42:25;;;;;;;12.40;6.90;;;;;;;24.27;57.84;98736.61;25210;1309;3054018;-64
2022/08/01 09:44:54;;;;;;;16.80;7.00;;;;;;;24.27;57.29;98733.18;25134;1309;3070627;-64
2022/08/01 09:47:23;;;;;;;12.60;6.90;;;;;;;24.38;57.04;98739.39;25136;1309;3026915;-62
2022/08/01 09:49:56;;;;;;;12.20;7.00;;;;;;;24.43;57.06;98736.57;25083;1309;3026357;-63
2022/08/01 09:52:26;;;;;;;14.10;6.70;;;;;;;24.46;56.96;98746.56;25135;1309;3070787;-64
2022/08/01 09:54:57;;;;;;;13.00;6.90;;;;;;;24.48;56.97;98757.14;25077;1311;3027235;-61
2022/08/01 09:57:26;;;;;;;12.90;6.60;;;;;;;24.43;56.97;98774.55;25161;1310;3026180;-64
2022/08/01 09:59:57;;;;;;;11.00;6.70;;;;;;;24.33;57.46;98801.84;25155;1309;3026551;-65
2022/08/01 10:02:26;;;;;;;14.30;6.90;;;;;;;24.34;57.67;98824.92;25171;1311;3027504;-67
2022/08/01 10:04:55;;;;;;;12.60;7.10;;;;;;;24.33;57.73;98839.20;25104;1310;3026698;-62
2022/08/01 10:07:24;;;;;;;10.00;7.10;;;;;;;24.41;57.54;98842.61;25142;1310;3052464;-63
2022/08/01 10:09:53;;;;;;;15.00;7.40;;;;;;;24.42;57.69;98844.84;25120;1309;3026481;-68
2022/08/01 10:12:23;;;;;;;17.30;7.30;;;;;;;24.37;57.98;98842.95;25132;1309;3055978;-63
2022/08/01 10:14:55;;;;;;;18.40;7.80;;;;;;;24.30;58.12;98846.91;25126;1309;3027258;-66
2022/08/01 10:17:24;;;;;;;13.60;7.20;;;;;;;24.15;58.38;98851.35;25150;1309;3029652;-65
2022/08/01 10:19:54;;;;;;;12.30;7.00;;;;;;;24.12;58.45;98852.09;25116;1309;3027682;-66
2022/08/01 10:22:23;;;;;;;15.90;7.10;;;;;;;24.11;58.33;98860.41;25193;1309;3026994;-64
2022/08/01 10:24:54;;;;;;;13.80;7.50;;;;;;;24.00;58.84;98866.04;25097;1309;3026138;-62
2022/08/01 10:27:23;;;;;;;13.40;7.50;;;;;;;23.94;58.91;98872.59;25149;1311;3026818;-62
2022/08/01 10:30:03;;;;;;;10.70;7.60;;;;;;;23.89;59.16;98877.08;25125;1312;3026731;-65
2022/08/01 10:32:34;;;;;;;9.70;6.70;;;;;;;23.80;59.64;98864.68;25091;1311;3053993;-62
2022/08/01 10:35:04;;;;;;;13.60;7.10;;;;;;;23.68;60.05;98875.23;25127;1311;3026608;-68
2022/08/01 10:37:34;;;;;;;19.30;7.30;;;;;;;23.63;60.20;98871.10;25181;1310;3026667;-63
2022/08/01 10:40:05;;;;;;;12.10;7.00;;;;;;;23.62;60.19;98879.42;25225;1310;3025965;-66
2022/08/01 10:42:34;;;;;;;12.70;8.00;;;;;;;23.60;60.55;98880.89;25118;1311;3027072;-63
2022/08/01 10:45:04;;;;;;;15.70;8.10;;;;;;;23.60;61.28;98887.45;25123;1312;3026497;-64
2022/08/01 10:47:51;;;;;;;11.80;7.30;;;;;;;23.53;62.45;98886.02;25093;1310;3054682;-64
2022/08/01 10:50:53;;;;;;;13.70;7.80;;;;;;;23.50;62.54;98890.23;25140;1309;3053462;-64
2022/08/01 10:53:23;;;;;;;11.80;7.80;;;;;;;23.38;64.10;98902.02;25111;1309;3056023;-63
2022/08/01 10:55:55;;;;;;;11.40;5.40;;;;;;;23.28;64.69;98903.92;25121;1309;3026542;-63
2022/08/01 10:58:37;;;;;;;12.00;6.00;;;;;;;23.84;63.61;98904.25;25094;1309;3026044;-65
2022/08/01 11:01:19;;;;;;;13.10;7.30;;;;;;;24.34;61.43;98898.72;25107;1311;3052240;-63
2022/08/01 11:04:09;;;;;;;15.60;7.40;;;;;;;24.35;60.65;98891.05;25087;1312;3071149;-63
2022/08/01 11:06:42;;;;;;;16.20;7.80;;;;;;;24.10;62.09;98893.43;25176;1310;3049738;-62
2022/08/01 11:09:14;;;;;;;15.80;8.00;;;;;;;23.94;62.54;98899.77;25141;1312;3054850;-62
2022/08/01 11:12:09;;;;;;;19.20;9.60;;;;;;;23.73;64.20;98899.69;25127;1310;3026467;-63
2022/08/01 11:15:00;;;;;;;11.60;7.30;;;;;;;23.52;64.14;98899.98;25172;1309;3056933;-62
2022/08/01 11:17:47;;;;;;;15.20;8.40;;;;;;;23.29;64.26;98902.23;25102;1310;3049683;-59
2022/08/01 11:20:23;;;;;;;15.80;8.20;;;;;;;23.15;64.93;98901.23;25110;1311;3055819;-62
2022/08/01 11:23:04;;;;;;;16.40;9.50;;;;;;;23.06;65.46;98902.51;25109;1309;3054165;-60
2022/08/01 11:25:37;;;;;;;13.00;7.10;;;;;;;23.02;66.77;98901.92;25148;1312;3069727;-63
2022/08/01 11:28:19;;;;;;;14.80;8.80;;;;;;;23.57;64.94;98893.36;25141;1310;3026203;-61
2022/08/01 11:31:08;;;;;;;19.60;9.60;;;;;;;23.99;64.04;98896.89;25125;1310;3053467;-65
2022/08/01 11:33:40;;;;;;;17.80;10.20;;;;;;;23.96;63.75;98916.02;25122;1311;3055437;-64